Lizton, Indiana
Current Conditions -  °F | °C
As of 10:53 PM on Wednesday 17 Dec 2014 (Local Time) from KEYE Reporting Station
Overcast Overcast  
Wind Chill: 18°   Ceiling: 1700
Heat Index: 24°   Visibility: 10mi
Dew Point: 18°   Wind: 5mph
Humidity: 77%   Direction: 310°NW
Pressure: 30.27"   Gusts: NA
Location:  39.89°N, 86.54°W
Report Text: KEYE 180353Z AUTO 31004KT 10SM OVC017 M04/M08 A3027 RMK AO2 SLP262 T10441078
Loading
Personal Weather Stations






























Interactive Weather Map New forecast layout! Learn more

10-Day Weather Forecast

Advertisements
Track Severe Weather on mobile